sensor_id;sensor_type;location;lat;lon;timestamp;P1;durP1;ratioP1;P2;durP2;ratioP2
22603;SDS011;11469;49.024;8.246;2023-06-22T00:02:14;9.07;;;6.18;;
22603;SDS011;11469;49.024;8.246;2023-06-22T00:04:40;8.05;;;5.70;;
22603;SDS011;11469;49.024;8.246;2023-06-22T00:07:05;12.45;;;5.80;;
22603;SDS011;11469;49.024;8.246;2023-06-22T00:09:31;8.65;;;5.70;;
22603;SDS011;11469;49.024;8.246;2023-06-22T00:11:56;10.43;;;5.57;;
22603;SDS011;11469;49.024;8.246;2023-06-22T00:14:22;8.70;;;5.95;;
22603;SDS011;11469;49.024;8.246;2023-06-22T00:16:47;9.38;;;6.40;;
22603;SDS011;11469;49.024;8.246;2023-06-22T00:19:14;9.88;;;6.20;;
22603;SDS011;11469;49.024;8.246;2023-06-22T00:21:40;12.32;;;5.97;;
22603;SDS011;11469;49.024;8.246;2023-06-22T00:24:05;6.70;;;5.40;;
22603;SDS011;11469;49.024;8.246;2023-06-22T00:26:31;9.05;;;5.80;;
22603;SDS011;11469;49.024;8.246;2023-06-22T00:28:57;29.95;;;9.73;;
22603;SDS011;11469;49.024;8.246;2023-06-22T00:31:22;16.70;;;7.60;;
22603;SDS011;11469;49.024;8.246;2023-06-22T00:33:47;16.25;;;7.47;;
22603;SDS011;11469;49.024;8.246;2023-06-22T00:36:15;13.93;;;7.60;;
22603;SDS011;11469;49.024;8.246;2023-06-22T00:38:42;15.20;;;7.60;;
22603;SDS011;11469;49.024;8.246;2023-06-22T00:41:08;12.40;;;7.25;;
22603;SDS011;11469;49.024;8.246;2023-06-22T00:43:33;16.13;;;8.27;;
22603;SDS011;11469;49.024;8.246;2023-06-22T00:45:59;13.55;;;8.18;;
22603;SDS011;11469;49.024;8.246;2023-06-22T00:48:24;15.20;;;8.70;;
22603;SDS011;11469;49.024;8.246;2023-06-22T00:50:50;14.57;;;8.65;;
22603;SDS011;11469;49.024;8.246;2023-06-22T00:53:18;12.82;;;8.07;;
22603;SDS011;11469;49.024;8.246;2023-06-22T00:55:45;19.92;;;9.25;;
22603;SDS011;11469;49.024;8.246;2023-06-22T00:58:16;14.30;;;8.63;;
22603;SDS011;11469;49.024;8.246;2023-06-22T01:00:46;21.90;;;9.10;;
22603;SDS011;11469;49.024;8.246;2023-06-22T01:03:12;16.25;;;8.73;;
22603;SDS011;11469;49.024;8.246;2023-06-22T01:05:38;14.68;;;8.18;;
22603;SDS011;11469;49.024;8.246;2023-06-22T01:08:19;17.10;;;9.35;;
22603;SDS011;11469;49.024;8.246;2023-06-22T01:16:40;13.57;;;9.60;;
22603;SDS011;11469;49.024;8.246;2023-06-22T01:19:09;17.65;;;9.35;;
22603;SDS011;11469;49.024;8.246;2023-06-22T01:21:57;19.60;;;10.27;;
22603;SDS011;11469;49.024;8.246;2023-06-22T01:24:24;14.27;;;9.50;;
22603;SDS011;11469;49.024;8.246;2023-06-22T01:29:39;17.57;;;11.23;;
22603;SDS011;11469;49.024;8.246;2023-06-22T01:32:06;19.15;;;10.52;;
22603;SDS011;11469;49.024;8.246;2023-06-22T01:34:32;20.40;;;10.40;;
22603;SDS011;11469;49.024;8.246;2023-06-22T01:36:59;22.35;;;11.20;;
22603;SDS011;11469;49.024;8.246;2023-06-22T01:39:27;18.05;;;10.57;;
22603;SDS011;11469;49.024;8.246;2023-06-22T01:41:52;16.20;;;9.90;;
22603;SDS011;11469;49.024;8.246;2023-06-22T01:44:19;18.27;;;10.27;;
22603;SDS011;11469;49.024;8.246;2023-06-22T01:46:45;22.63;;;10.52;;
22603;SDS011;11469;49.024;8.246;2023-06-22T01:49:11;16.98;;;10.05;;
22603;SDS011;11469;49.024;8.246;2023-06-22T01:51:37;19.35;;;10.45;;
22603;SDS011;11469;49.024;8.246;2023-06-22T01:54:03;18.83;;;10.80;;
22603;SDS011;11469;49.024;8.246;2023-06-22T01:56:28;17.92;;;11.65;;
22603;SDS011;11469;49.024;8.246;2023-06-22T01:58:59;15.00;;;11.05;;
22603;SDS011;11469;49.024;8.246;2023-06-22T02:01:53;16.55;;;10.75;;
22603;SDS011;11469;49.024;8.246;2023-06-22T02:04:27;18.35;;;11.45;;
22603;SDS011;11469;49.024;8.246;2023-06-22T02:06:58;16.58;;;11.07;;
22603;SDS011;11469;49.024;8.246;2023-06-22T02:09:26;14.63;;;10.05;;
22603;SDS011;11469;49.024;8.246;2023-06-22T02:11:55;19.38;;;10.40;;
22603;SDS011;11469;49.024;8.246;2023-06-22T02:14:22;16.00;;;9.98;;
22603;SDS011;11469;49.024;8.246;2023-06-22T02:16:49;15.85;;;10.68;;
22603;SDS011;11469;49.024;8.246;2023-06-22T02:19:16;12.45;;;9.77;;
22603;SDS011;11469;49.024;8.246;2023-06-22T02:21:43;17.05;;;10.27;;
22603;SDS011;11469;49.024;8.246;2023-06-22T02:24:10;21.92;;;11.63;;
22603;SDS011;11469;49.024;8.246;2023-06-22T02:26:35;17.40;;;9.77;;
22603;SDS011;11469;49.024;8.246;2023-06-22T02:29:03;15.27;;;10.25;;
22603;SDS011;11469;49.024;8.246;2023-06-22T02:31:28;21.08;;;9.77;;
22603;SDS011;11469;49.024;8.246;2023-06-22T02:33:56;14.60;;;10.80;;
22603;SDS011;11469;49.024;8.246;2023-06-22T02:36:23;20.45;;;10.85;;
22603;SDS011;11469;49.024;8.246;2023-06-22T02:38:50;15.80;;;9.82;;
22603;SDS011;11469;49.024;8.246;2023-06-22T02:41:15;21.23;;;11.32;;
22603;SDS011;11469;49.024;8.246;2023-06-22T02:43:43;14.40;;;10.75;;
22603;SDS011;11469;49.024;8.246;2023-06-22T02:46:10;14.38;;;10.75;;
22603;SDS011;11469;49.024;8.246;2023-06-22T02:48:36;16.15;;;10.80;;
22603;SDS011;11469;49.024;8.246;2023-06-22T02:51:01;14.85;;;9.25;;
22603;SDS011;11469;49.024;8.246;2023-06-22T02:53:27;27.58;;;10.98;;
22603;SDS011;11469;49.024;8.246;2023-06-22T02:55:52;17.55;;;10.52;;
22603;SDS011;11469;49.024;8.246;2023-06-22T02:58:17;17.92;;;10.00;;
22603;SDS011;11469;49.024;8.246;2023-06-22T03:00:43;16.08;;;10.40;;
22603;SDS011;11469;49.024;8.246;2023-06-22T03:03:08;17.30;;;11.02;;
22603;SDS011;11469;49.024;8.246;2023-06-22T03:05:34;17.00;;;10.80;;
22603;SDS011;11469;49.024;8.246;2023-06-22T03:08:00;16.38;;;9.32;;
22603;SDS011;11469;49.024;8.246;2023-06-22T03:10:25;14.60;;;10.38;;
22603;SDS011;11469;49.024;8.246;2023-06-22T03:12:51;16.73;;;9.98;;
22603;SDS011;11469;49.024;8.246;2023-06-22T03:15:16;15.45;;;9.65;;
22603;SDS011;11469;49.024;8.246;2023-06-22T03:17:42;18.83;;;10.15;;
22603;SDS011;11469;49.024;8.246;2023-06-22T03:20:08;16.63;;;10.90;;
22603;SDS011;11469;49.024;8.246;2023-06-22T03:22:37;21.75;;;11.25;;
22603;SDS011;11469;49.024;8.246;2023-06-22T03:25:03;17.08;;;9.27;;
22603;SDS011;11469;49.024;8.246;2023-06-22T03:27:29;15.13;;;9.90;;
22603;SDS011;11469;49.024;8.246;2023-06-22T03:29:56;18.20;;;9.88;;
22603;SDS011;11469;49.024;8.246;2023-06-22T03:32:22;20.27;;;9.70;;
22603;SDS011;11469;49.024;8.246;2023-06-22T03:34:47;20.23;;;9.20;;
22603;SDS011;11469;49.024;8.246;2023-06-22T03:37:14;15.32;;;9.90;;
22603;SDS011;11469;49.024;8.246;2023-06-22T03:39:40;12.98;;;9.10;;
22603;SDS011;11469;49.024;8.246;2023-06-22T03:42:06;16.60;;;9.90;;
22603;SDS011;11469;49.024;8.246;2023-06-22T03:44:32;19.60;;;9.63;;
22603;SDS011;11469;49.024;8.246;2023-06-22T03:46:57;18.55;;;10.20;;
22603;SDS011;11469;49.024;8.246;2023-06-22T03:49:23;16.75;;;9.50;;
22603;SDS011;11469;49.024;8.246;2023-06-22T03:51:48;26.63;;;9.65;;
22603;SDS011;11469;49.024;8.246;2023-06-22T03:54:14;20.77;;;10.93;;
22603;SDS011;11469;49.024;8.246;2023-06-22T03:56:39;13.98;;;8.95;;
22603;SDS011;11469;49.024;8.246;2023-06-22T03:59:04;16.27;;;10.23;;
22603;SDS011;11469;49.024;8.246;2023-06-22T04:01:30;13.40;;;9.02;;
22603;SDS011;11469;49.024;8.246;2023-06-22T04:03:55;14.73;;;8.98;;
22603;SDS011;11469;49.024;8.246;2023-06-22T04:06:22;17.15;;;8.98;;
22603;SDS011;11469;49.024;8.246;2023-06-22T04:08:47;12.20;;;9.38;;
22603;SDS011;11469;49.024;8.246;2023-06-22T04:11:16;16.75;;;8.60;;
22603;SDS011;11469;49.024;8.246;2023-06-22T04:13:43;17.95;;;9.48;;
22603;SDS011;11469;49.024;8.246;2023-06-22T04:16:08;16.60;;;8.48;;
22603;SDS011;11469;49.024;8.246;2023-06-22T04:18:34;13.73;;;9.52;;
22603;SDS011;11469;49.024;8.246;2023-06-22T04:21:00;14.75;;;8.50;;
22603;SDS011;11469;49.024;8.246;2023-06-22T04:23:27;12.55;;;9.10;;
22603;SDS011;11469;49.024;8.246;2023-06-22T04:25:52;14.80;;;8.68;;
22603;SDS011;11469;49.024;8.246;2023-06-22T04:28:18;14.15;;;8.02;;
22603;SDS011;11469;49.024;8.246;2023-06-22T04:30:43;20.25;;;8.68;;
22603;SDS011;11469;49.024;8.246;2023-06-22T04:33:12;19.25;;;8.93;;
22603;SDS011;11469;49.024;8.246;2023-06-22T04:35:41;19.95;;;8.55;;
22603;SDS011;11469;49.024;8.246;2023-06-22T04:38:09;17.17;;;8.40;;
22603;SDS011;11469;49.024;8.246;2023-06-22T04:40:35;21.20;;;9.27;;
22603;SDS011;11469;49.024;8.246;2023-06-22T04:43:00;16.73;;;8.98;;
22603;SDS011;11469;49.024;8.246;2023-06-22T04:45:27;15.38;;;8.35;;
22603;SDS011;11469;49.024;8.246;2023-06-22T04:47:54;12.55;;;8.15;;
22603;SDS011;11469;49.024;8.246;2023-06-22T04:50:20;10.68;;;8.07;;
22603;SDS011;11469;49.024;8.246;2023-06-22T04:52:47;15.80;;;8.90;;
22603;SDS011;11469;49.024;8.246;2023-06-22T04:55:12;17.50;;;9.15;;
22603;SDS011;11469;49.024;8.246;2023-06-22T04:57:43;17.33;;;8.18;;
22603;SDS011;11469;49.024;8.246;2023-06-22T05:00:09;13.90;;;8.48;;
22603;SDS011;11469;49.024;8.246;2023-06-22T05:02:39;11.55;;;7.80;;
22603;SDS011;11469;49.024;8.246;2023-06-22T05:05:05;14.20;;;8.98;;
22603;SDS011;11469;49.024;8.246;2023-06-22T05:07:35;18.27;;;8.93;;
22603;SDS011;11469;49.024;8.246;2023-06-22T05:10:03;13.95;;;8.57;;
22603;SDS011;11469;49.024;8.246;2023-06-22T05:12:29;14.18;;;8.88;;
22603;SDS011;11469;49.024;8.246;2023-06-22T05:14:55;13.52;;;8.52;;
22603;SDS011;11469;49.024;8.246;2023-06-22T05:17:21;15.07;;;8.82;;
22603;SDS011;11469;49.024;8.246;2023-06-22T05:19:46;18.02;;;9.52;;
22603;SDS011;11469;49.024;8.246;2023-06-22T05:22:15;18.00;;;9.77;;
22603;SDS011;11469;49.024;8.246;2023-06-22T05:24:41;18.92;;;9.70;;
22603;SDS011;11469;49.024;8.246;2023-06-22T05:27:07;17.02;;;8.85;;
22603;SDS011;11469;49.024;8.246;2023-06-22T05:29:33;15.82;;;9.15;;
22603;SDS011;11469;49.024;8.246;2023-06-22T05:31:58;17.55;;;9.13;;
22603;SDS011;11469;49.024;8.246;2023-06-22T05:34:24;19.67;;;8.73;;
22603;SDS011;11469;49.024;8.246;2023-06-22T05:36:49;19.63;;;8.90;;
22603;SDS011;11469;49.024;8.246;2023-06-22T05:39:15;13.70;;;9.48;;
22603;SDS011;11469;49.024;8.246;2023-06-22T05:41:40;17.52;;;9.18;;
22603;SDS011;11469;49.024;8.246;2023-06-22T05:44:06;13.50;;;8.68;;
22603;SDS011;11469;49.024;8.246;2023-06-22T05:46:32;13.55;;;9.65;;
22603;SDS011;11469;49.024;8.246;2023-06-22T05:48:57;16.83;;;9.38;;
22603;SDS011;11469;49.024;8.246;2023-06-22T05:51:23;17.15;;;9.85;;
22603;SDS011;11469;49.024;8.246;2023-06-22T05:53:48;16.40;;;9.10;;
22603;SDS011;11469;49.024;8.246;2023-06-22T05:56:18;20.35;;;10.43;;
22603;SDS011;11469;49.024;8.246;2023-06-22T05:58:43;13.88;;;9.43;;
22603;SDS011;11469;49.024;8.246;2023-06-22T06:01:09;13.38;;;9.30;;
22603;SDS011;11469;49.024;8.246;2023-06-22T06:03:34;17.48;;;9.13;;
22603;SDS011;11469;49.024;8.246;2023-06-22T06:06:06;21.50;;;9.73;;
22603;SDS011;11469;49.024;8.246;2023-06-22T06:08:31;16.95;;;10.25;;
22603;SDS011;11469;49.024;8.246;2023-06-22T06:10:57;14.18;;;8.98;;
22603;SDS011;11469;49.024;8.246;2023-06-22T06:13:22;18.88;;;9.95;;
22603;SDS011;11469;49.024;8.246;2023-06-22T06:15:48;14.93;;;8.82;;
22603;SDS011;11469;49.024;8.246;2023-06-22T06:18:13;15.60;;;9.18;;
22603;SDS011;11469;49.024;8.246;2023-06-22T06:20:38;17.33;;;8.82;;
22603;SDS011;11469;49.024;8.246;2023-06-22T06:23:04;14.15;;;8.98;;
22603;SDS011;11469;49.024;8.246;2023-06-22T06:25:29;21.88;;;9.60;;
22603;SDS011;11469;49.024;8.246;2023-06-22T06:27:54;19.35;;;10.07;;
22603;SDS011;11469;49.024;8.246;2023-06-22T06:30:20;15.93;;;9.30;;
22603;SDS011;11469;49.024;8.246;2023-06-22T06:32:47;16.55;;;8.82;;
22603;SDS011;11469;49.024;8.246;2023-06-22T06:35:13;21.40;;;9.82;;
22603;SDS011;11469;49.024;8.246;2023-06-22T06:37:40;16.63;;;9.73;;
22603;SDS011;11469;49.024;8.246;2023-06-22T06:40:07;19.77;;;9.52;;
22603;SDS011;11469;49.024;8.246;2023-06-22T06:42:40;16.63;;;9.30;;
22603;SDS011;11469;49.024;8.246;2023-06-22T06:45:09;13.35;;;8.65;;
22603;SDS011;11469;49.024;8.246;2023-06-22T06:47:41;17.05;;;9.18;;
22603;SDS011;11469;49.024;8.246;2023-06-22T06:50:06;17.80;;;9.80;;
22603;SDS011;11469;49.024;8.246;2023-06-22T06:52:32;20.25;;;10.15;;
22603;SDS011;11469;49.024;8.246;2023-06-22T06:54:58;18.27;;;9.32;;
22603;SDS011;11469;49.024;8.246;2023-06-22T06:57:24;18.70;;;10.43;;
22603;SDS011;11469;49.024;8.246;2023-06-22T06:59:53;20.40;;;9.52;;
22603;SDS011;11469;49.024;8.246;2023-06-22T07:02:22;24.38;;;9.05;;
22603;SDS011;11469;49.024;8.246;2023-06-22T07:04:48;19.65;;;10.43;;
22603;SDS011;11469;49.024;8.246;2023-06-22T07:07:13;16.45;;;8.82;;
22603;SDS011;11469;49.024;8.246;2023-06-22T07:09:39;16.42;;;9.88;;
22603;SDS011;11469;49.024;8.246;2023-06-22T07:12:05;20.02;;;9.90;;
22603;SDS011;11469;49.024;8.246;2023-06-22T07:14:30;18.85;;;9.10;;
22603;SDS011;11469;49.024;8.246;2023-06-22T07:16:56;12.85;;;8.52;;
22603;SDS011;11469;49.024;8.246;2023-06-22T07:19:26;14.88;;;9.15;;
22603;SDS011;11469;49.024;8.246;2023-06-22T07:21:53;17.70;;;9.30;;
22603;SDS011;11469;49.024;8.246;2023-06-22T07:24:19;22.63;;;10.48;;
22603;SDS011;11469;49.024;8.246;2023-06-22T07:26:45;21.35;;;9.95;;
22603;SDS011;11469;49.024;8.246;2023-06-22T07:29:13;15.98;;;9.88;;
22603;SDS011;11469;49.024;8.246;2023-06-22T07:31:38;16.33;;;10.18;;
22603;SDS011;11469;49.024;8.246;2023-06-22T07:34:06;18.27;;;9.90;;
22603;SDS011;11469;49.024;8.246;2023-06-22T07:36:31;15.70;;;9.82;;
22603;SDS011;11469;49.024;8.246;2023-06-22T07:38:56;19.30;;;10.02;;
22603;SDS011;11469;49.024;8.246;2023-06-22T07:41:22;22.85;;;9.27;;
22603;SDS011;11469;49.024;8.246;2023-06-22T07:43:47;14.52;;;9.07;;
22603;SDS011;11469;49.024;8.246;2023-06-22T07:46:13;20.58;;;9.90;;
22603;SDS011;11469;49.024;8.246;2023-06-22T07:48:38;16.13;;;8.82;;
22603;SDS011;11469;49.024;8.246;2023-06-22T07:51:04;16.05;;;9.60;;
22603;SDS011;11469;49.024;8.246;2023-06-22T07:53:31;14.30;;;9.05;;
22603;SDS011;11469;49.024;8.246;2023-06-22T07:55:56;19.17;;;9.13;;
22603;SDS011;11469;49.024;8.246;2023-06-22T07:58:22;16.45;;;9.13;;
22603;SDS011;11469;49.024;8.246;2023-06-22T08:00:47;14.50;;;8.68;;
22603;SDS011;11469;49.024;8.246;2023-06-22T08:03:14;16.48;;;9.75;;
22603;SDS011;11469;49.024;8.246;2023-06-22T08:05:40;22.27;;;9.02;;
22603;SDS011;11469;49.024;8.246;2023-06-22T08:08:05;20.42;;;8.93;;
22603;SDS011;11469;49.024;8.246;2023-06-22T08:10:31;20.60;;;9.95;;
22603;SDS011;11469;49.024;8.246;2023-06-22T08:12:56;14.70;;;9.73;;
22603;SDS011;11469;49.024;8.246;2023-06-22T08:15:21;18.40;;;9.82;;
22603;SDS011;11469;49.024;8.246;2023-06-22T08:17:47;19.58;;;9.40;;
22603;SDS011;11469;49.024;8.246;2023-06-22T08:20:12;18.02;;;10.35;;
22603;SDS011;11469;49.024;8.246;2023-06-22T08:22:38;22.13;;;9.90;;
22603;SDS011;11469;49.024;8.246;2023-06-22T08:25:04;18.85;;;9.68;;
22603;SDS011;11469;49.024;8.246;2023-06-22T08:27:31;15.52;;;9.35;;
22603;SDS011;11469;49.024;8.246;2023-06-22T08:30:00;18.55;;;9.27;;
22603;SDS011;11469;49.024;8.246;2023-06-22T08:32:29;21.27;;;9.55;;
22603;SDS011;11469;49.024;8.246;2023-06-22T08:34:55;19.17;;;8.45;;
22603;SDS011;11469;49.024;8.246;2023-06-22T08:37:22;15.52;;;8.05;;
22603;SDS011;11469;49.024;8.246;2023-06-22T08:39:59;20.00;;;8.50;;
22603;SDS011;11469;49.024;8.246;2023-06-22T08:42:26;17.13;;;7.95;;
22603;SDS011;11469;49.024;8.246;2023-06-22T08:44:51;12.20;;;7.95;;
22603;SDS011;11469;49.024;8.246;2023-06-22T08:47:17;15.73;;;7.70;;
22603;SDS011;11469;49.024;8.246;2023-06-22T08:49:42;17.73;;;8.63;;
22603;SDS011;11469;49.024;8.246;2023-06-22T08:52:07;13.98;;;8.85;;
22603;SDS011;11469;49.024;8.246;2023-06-22T08:54:33;13.85;;;8.02;;
22603;SDS011;11469;49.024;8.246;2023-06-22T08:57:00;20.02;;;7.68;;
22603;SDS011;11469;49.024;8.246;2023-06-22T08:59:26;15.40;;;7.95;;
22603;SDS011;11469;49.024;8.246;2023-06-22T09:01:51;14.00;;;7.47;;
22603;SDS011;11469;49.024;8.246;2023-06-22T09:04:17;16.40;;;7.20;;
22603;SDS011;11469;49.024;8.246;2023-06-22T09:06:42;14.30;;;7.90;;
22603;SDS011;11469;49.024;8.246;2023-06-22T09:09:15;23.73;;;7.68;;
22603;SDS011;11469;49.024;8.246;2023-06-22T09:11:41;15.15;;;8.85;;
22603;SDS011;11469;49.024;8.246;2023-06-22T09:14:07;15.55;;;8.48;;
22603;SDS011;11469;49.024;8.246;2023-06-22T09:16:33;13.30;;;8.25;;
22603;SDS011;11469;49.024;8.246;2023-06-22T09:18:59;16.73;;;7.90;;
22603;SDS011;11469;49.024;8.246;2023-06-22T09:21:25;15.32;;;8.20;;
22603;SDS011;11469;49.024;8.246;2023-06-22T09:23:50;19.92;;;8.52;;
22603;SDS011;11469;49.024;8.246;2023-06-22T09:26:19;14.88;;;7.10;;
22603;SDS011;11469;49.024;8.246;2023-06-22T09:28:45;18.15;;;8.90;;
22603;SDS011;11469;49.024;8.246;2023-06-22T09:31:11;20.73;;;8.55;;
22603;SDS011;11469;49.024;8.246;2023-06-22T09:33:39;16.42;;;8.52;;
22603;SDS011;11469;49.024;8.246;2023-06-22T09:36:05;14.43;;;7.95;;
22603;SDS011;11469;49.024;8.246;2023-06-22T09:38:34;18.55;;;7.45;;
22603;SDS011;11469;49.024;8.246;2023-06-22T09:41:03;19.92;;;8.23;;
22603;SDS011;11469;49.024;8.246;2023-06-22T09:43:29;13.98;;;7.43;;
22603;SDS011;11469;49.024;8.246;2023-06-22T09:45:56;14.52;;;7.18;;
22603;SDS011;11469;49.024;8.246;2023-06-22T09:48:21;17.05;;;7.22;;
22603;SDS011;11469;49.024;8.246;2023-06-22T09:50:47;12.60;;;7.25;;
22603;SDS011;11469;49.024;8.246;2023-06-22T09:53:12;11.15;;;7.03;;
22603;SDS011;11469;49.024;8.246;2023-06-22T09:55:38;13.40;;;7.60;;
22603;SDS011;11469;49.024;8.246;2023-06-22T09:58:03;18.52;;;7.50;;
22603;SDS011;11469;49.024;8.246;2023-06-22T10:00:28;19.00;;;7.68;;
22603;SDS011;11469;49.024;8.246;2023-06-22T10:02:54;12.75;;;7.03;;
22603;SDS011;11469;49.024;8.246;2023-06-22T10:05:21;15.63;;;7.25;;
22603;SDS011;11469;49.024;8.246;2023-06-22T10:07:46;14.32;;;7.00;;
22603;SDS011;11469;49.024;8.246;2023-06-22T10:10:12;13.38;;;6.68;;
22603;SDS011;11469;49.024;8.246;2023-06-22T10:12:41;15.63;;;7.22;;
22603;SDS011;11469;49.024;8.246;2023-06-22T10:15:08;16.33;;;8.25;;
22603;SDS011;11469;49.024;8.246;2023-06-22T10:17:33;14.52;;;7.68;;
22603;SDS011;11469;49.024;8.246;2023-06-22T10:19:59;15.27;;;7.18;;
22603;SDS011;11469;49.024;8.246;2023-06-22T10:22:26;12.40;;;7.07;;
22603;SDS011;11469;49.024;8.246;2023-06-22T10:24:51;12.85;;;7.22;;
22603;SDS011;11469;49.024;8.246;2023-06-22T10:27:17;11.30;;;6.65;;
22603;SDS011;11469;49.024;8.246;2023-06-22T10:29:42;12.98;;;7.13;;
22603;SDS011;11469;49.024;8.246;2023-06-22T10:32:08;13.30;;;6.75;;
22603;SDS011;11469;49.024;8.246;2023-06-22T10:34:33;19.70;;;7.30;;
22603;SDS011;11469;49.024;8.246;2023-06-22T10:36:59;12.68;;;7.22;;
22603;SDS011;11469;49.024;8.246;2023-06-22T10:39:24;12.85;;;6.30;;
22603;SDS011;11469;49.024;8.246;2023-06-22T10:41:50;11.93;;;7.03;;
22603;SDS011;11469;49.024;8.246;2023-06-22T10:44:15;18.48;;;6.97;;
22603;SDS011;11469;49.024;8.246;2023-06-22T10:46:44;15.70;;;6.45;;
22603;SDS011;11469;49.024;8.246;2023-06-22T10:49:09;16.20;;;6.72;;
22603;SDS011;11469;49.024;8.246;2023-06-22T10:51:34;15.20;;;6.80;;
22603;SDS011;11469;49.024;8.246;2023-06-22T10:54:00;19.50;;;6.65;;
22603;SDS011;11469;49.024;8.246;2023-06-22T10:56:25;17.65;;;6.53;;
22603;SDS011;11469;49.024;8.246;2023-06-22T10:58:50;13.70;;;6.47;;
22603;SDS011;11469;49.024;8.246;2023-06-22T11:01:16;13.55;;;6.50;;
22603;SDS011;11469;49.024;8.246;2023-06-22T11:03:41;11.63;;;6.57;;
22603;SDS011;11469;49.024;8.246;2023-06-22T11:06:07;12.63;;;5.55;;
22603;SDS011;11469;49.024;8.246;2023-06-22T11:08:32;14.57;;;6.32;;
22603;SDS011;11469;49.024;8.246;2023-06-22T11:10:57;11.90;;;6.07;;
22603;SDS011;11469;49.024;8.246;2023-06-22T11:13:23;16.08;;;7.03;;
22603;SDS011;11469;49.024;8.246;2023-06-22T11:15:48;11.63;;;6.38;;
22603;SDS011;11469;49.024;8.246;2023-06-22T11:18:13;15.30;;;6.45;;
22603;SDS011;11469;49.024;8.246;2023-06-22T11:20:39;16.33;;;6.32;;
22603;SDS011;11469;49.024;8.246;2023-06-22T11:23:05;11.80;;;5.28;;
22603;SDS011;11469;49.024;8.246;2023-06-22T11:25:31;12.88;;;7.10;;
22603;SDS011;11469;49.024;8.246;2023-06-22T11:27:57;14.23;;;6.00;;
22603;SDS011;11469;49.024;8.246;2023-06-22T11:30:22;12.25;;;5.95;;
22603;SDS011;11469;49.024;8.246;2023-06-22T11:32:48;16.02;;;5.95;;
22603;SDS011;11469;49.024;8.246;2023-06-22T11:35:13;15.75;;;6.20;;
22603;SDS011;11469;49.024;8.246;2023-06-22T11:37:41;11.82;;;5.82;;
22603;SDS011;11469;49.024;8.246;2023-06-22T11:40:07;12.55;;;5.90;;
22603;SDS011;11469;49.024;8.246;2023-06-22T11:42:34;9.00;;;5.13;;
22603;SDS011;11469;49.024;8.246;2023-06-22T11:45:00;12.85;;;5.70;;
22603;SDS011;11469;49.024;8.246;2023-06-22T11:47:25;16.00;;;5.65;;
22603;SDS011;11469;49.024;8.246;2023-06-22T11:49:50;14.23;;;5.47;;
22603;SDS011;11469;49.024;8.246;2023-06-22T11:52:16;14.30;;;6.38;;
22603;SDS011;11469;49.024;8.246;2023-06-22T11:54:42;12.65;;;5.28;;
22603;SDS011;11469;49.024;8.246;2023-06-22T11:57:08;11.52;;;5.82;;
22603;SDS011;11469;49.024;8.246;2023-06-22T11:59:33;13.90;;;5.75;;
22603;SDS011;11469;49.024;8.246;2023-06-22T12:01:59;17.00;;;6.13;;
22603;SDS011;11469;49.024;8.246;2023-06-22T12:04:24;14.00;;;5.80;;
22603;SDS011;11469;49.024;8.246;2023-06-22T12:06:50;14.95;;;6.68;;
22603;SDS011;11469;49.024;8.246;2023-06-22T12:09:15;12.13;;;5.80;;
22603;SDS011;11469;49.024;8.246;2023-06-22T12:11:41;14.75;;;6.72;;
22603;SDS011;11469;49.024;8.246;2023-06-22T12:14:06;13.75;;;5.53;;
22603;SDS011;11469;49.024;8.246;2023-06-22T12:16:31;13.88;;;6.60;;
22603;SDS011;11469;49.024;8.246;2023-06-22T12:18:57;14.90;;;6.00;;
22603;SDS011;11469;49.024;8.246;2023-06-22T12:21:22;15.10;;;6.10;;
22603;SDS011;11469;49.024;8.246;2023-06-22T12:23:47;16.00;;;6.65;;
22603;SDS011;11469;49.024;8.246;2023-06-22T12:26:13;14.93;;;6.15;;
22603;SDS011;11469;49.024;8.246;2023-06-22T12:28:38;17.58;;;6.40;;
22603;SDS011;11469;49.024;8.246;2023-06-22T12:31:04;11.93;;;5.93;;
22603;SDS011;11469;49.024;8.246;2023-06-22T12:33:29;15.88;;;6.63;;
22603;SDS011;11469;49.024;8.246;2023-06-22T12:35:55;12.55;;;6.40;;
22603;SDS011;11469;49.024;8.246;2023-06-22T12:38:21;17.85;;;5.90;;
22603;SDS011;11469;49.024;8.246;2023-06-22T12:40:46;13.52;;;5.85;;
22603;SDS011;11469;49.024;8.246;2023-06-22T12:43:12;15.95;;;5.88;;
22603;SDS011;11469;49.024;8.246;2023-06-22T12:45:38;18.92;;;6.65;;
22603;SDS011;11469;49.024;8.246;2023-06-22T12:48:04;14.35;;;6.65;;
22603;SDS011;11469;49.024;8.246;2023-06-22T12:50:29;18.75;;;6.18;;
22603;SDS011;11469;49.024;8.246;2023-06-22T12:52:55;18.33;;;5.85;;
22603;SDS011;11469;49.024;8.246;2023-06-22T12:55:20;16.65;;;6.10;;
22603;SDS011;11469;49.024;8.246;2023-06-22T12:57:46;16.48;;;5.68;;
22603;SDS011;11469;49.024;8.246;2023-06-22T13:00:11;14.50;;;5.68;;
22603;SDS011;11469;49.024;8.246;2023-06-22T13:02:37;16.52;;;5.55;;
22603;SDS011;11469;49.024;8.246;2023-06-22T13:05:03;15.77;;;6.03;;
22603;SDS011;11469;49.024;8.246;2023-06-22T13:07:30;20.65;;;6.68;;
22603;SDS011;11469;49.024;8.246;2023-06-22T13:09:57;16.40;;;6.13;;
22603;SDS011;11469;49.024;8.246;2023-06-22T13:12:22;14.48;;;5.97;;
22603;SDS011;11469;49.024;8.246;2023-06-22T13:14:48;15.43;;;6.88;;
22603;SDS011;11469;49.024;8.246;2023-06-22T13:17:13;14.27;;;5.95;;
22603;SDS011;11469;49.024;8.246;2023-06-22T13:19:39;18.42;;;6.75;;
22603;SDS011;11469;49.024;8.246;2023-06-22T13:22:05;15.40;;;6.38;;
22603;SDS011;11469;49.024;8.246;2023-06-22T13:24:50;22.08;;;6.97;;
22603;SDS011;11469;49.024;8.246;2023-06-22T13:27:15;14.10;;;6.78;;
22603;SDS011;11469;49.024;8.246;2023-06-22T13:29:40;17.75;;;6.57;;
22603;SDS011;11469;49.024;8.246;2023-06-22T13:32:06;21.42;;;6.68;;
22603;SDS011;11469;49.024;8.246;2023-06-22T13:34:31;13.25;;;5.65;;
22603;SDS011;11469;49.024;8.246;2023-06-22T13:36:57;16.20;;;6.13;;
22603;SDS011;11469;49.024;8.246;2023-06-22T13:39:22;15.32;;;6.22;;
22603;SDS011;11469;49.024;8.246;2023-06-22T13:41:47;20.80;;;6.50;;
22603;SDS011;11469;49.024;8.246;2023-06-22T13:44:13;23.13;;;6.22;;
22603;SDS011;11469;49.024;8.246;2023-06-22T13:46:38;14.23;;;6.03;;
22603;SDS011;11469;49.024;8.246;2023-06-22T13:49:03;12.55;;;5.68;;
22603;SDS011;11469;49.024;8.246;2023-06-22T13:51:29;20.33;;;5.25;;
22603;SDS011;11469;49.024;8.246;2023-06-22T13:53:54;20.45;;;6.70;;
22603;SDS011;11469;49.024;8.246;2023-06-22T13:56:20;19.60;;;6.22;;
22603;SDS011;11469;49.024;8.246;2023-06-22T13:58:45;14.38;;;6.50;;
22603;SDS011;11469;49.024;8.246;2023-06-22T14:01:10;16.73;;;6.30;;
22603;SDS011;11469;49.024;8.246;2023-06-22T14:03:36;22.50;;;6.78;;
22603;SDS011;11469;49.024;8.246;2023-06-22T14:06:01;15.65;;;6.25;;
22603;SDS011;11469;49.024;8.246;2023-06-22T14:08:26;20.60;;;6.43;;
22603;SDS011;11469;49.024;8.246;2023-06-22T14:10:52;16.55;;;6.63;;
22603;SDS011;11469;49.024;8.246;2023-06-22T14:13:18;16.58;;;6.43;;
22603;SDS011;11469;49.024;8.246;2023-06-22T14:15:44;13.68;;;6.07;;
22603;SDS011;11469;49.024;8.246;2023-06-22T14:18:09;21.98;;;7.57;;
22603;SDS011;11469;49.024;8.246;2023-06-22T14:20:34;31.83;;;9.30;;
22603;SDS011;11469;49.024;8.246;2023-06-22T14:23:00;43.08;;;10.85;;
22603;SDS011;11469;49.024;8.246;2023-06-22T14:25:25;29.35;;;9.63;;
22603;SDS011;11469;49.024;8.246;2023-06-22T14:27:50;19.52;;;8.52;;
22603;SDS011;11469;49.024;8.246;2023-06-22T14:30:16;18.50;;;7.68;;
22603;SDS011;11469;49.024;8.246;2023-06-22T14:32:43;17.58;;;7.15;;
22603;SDS011;11469;49.024;8.246;2023-06-22T14:35:09;24.92;;;9.23;;
22603;SDS011;11469;49.024;8.246;2023-06-22T14:37:34;21.10;;;7.70;;